Time;durP1;ratioP1;P1;durP2;ratioP2;P2;SDS_P1;SDS_P2;PMS_P1;PMS_P2;Temp;Humidity;BMP_temperature;BMP_pressure;BME280_temperature;BME280_humidity;BME280_pressure;Samples;Min_cycle;Max_cycle;Signal;HPM_P1;HPM_P2
2024/04/05 00:02:18;;;;;;;3.45;1.35;;;;;;;;;;5054574;28;20521;-59
2024/04/05 00:04:45;;;;;;;1.83;0.80;;;;;;;;;;5054556;28;20035;-58
2024/04/05 00:07:12;;;;;;;1.98;0.98;;;;;;;;;;5054525;28;20421;-57
2024/04/05 00:09:39;;;;;;;2.75;1.13;;;;;;;;;;5055043;28;20029;-57
2024/04/05 00:12:06;;;;;;;2.00;1.02;;;;;;;;;;5054379;28;20033;-57
2024/04/05 00:14:32;;;;;;;2.60;1.25;;;;;;;;;;5054036;28;20455;-58
2024/04/05 00:16:58;;;;;;;2.55;1.15;;;;;;;;;;5054003;28;20375;-57
2024/04/05 00:19:24;;;;;;;1.70;0.95;;;;;;;;;;5054793;28;20095;-58
2024/04/05 00:21:50;;;;;;;1.80;0.98;;;;;;;;;;5054244;28;20064;-58
2024/04/05 00:24:16;;;;;;;1.92;1.10;;;;;;;;;;5054770;28;20432;-59
2024/04/05 00:26:41;;;;;;;3.28;1.13;;;;;;;;;;5054208;28;20029;-60
2024/04/05 00:29:07;;;;;;;1.63;1.02;;;;;;;;;;5054943;28;20116;-60
2024/04/05 00:31:34;;;;;;;3.45;0.90;;;;;;;;;;5054657;28;20032;-60
2024/04/05 00:34:00;;;;;;;3.50;1.17;;;;;;;;;;5053992;28;20061;-60
2024/04/05 00:36:26;;;;;;;2.45;1.17;;;;;;;;;;5054345;28;20063;-59
2024/04/05 00:38:54;;;;;;;2.58;1.02;;;;;;;;;;5054688;28;20439;-60
2024/04/05 00:41:20;;;;;;;3.33;0.88;;;;;;;;;;5053831;28;20025;-60
2024/04/05 00:43:46;;;;;;;1.83;0.80;;;;;;;;;;5053465;28;20100;-60
2024/04/05 00:46:12;;;;;;;1.58;0.80;;;;;;;;;;5053559;28;20028;-60
2024/04/05 00:48:39;;;;;;;1.55;0.80;;;;;;;;;;5054089;28;20460;-60
2024/04/05 00:51:07;;;;;;;1.58;0.73;;;;;;;;;;5053735;28;20086;-60
2024/04/05 00:53:33;;;;;;;2.63;0.93;;;;;;;;;;5053994;28;20120;-60
2024/04/05 00:56:00;;;;;;;3.03;1.10;;;;;;;;;;5053881;28;20104;-60
2024/04/05 00:58:26;;;;;;;3.28;1.15;;;;;;;;;;5053660;28;20036;-60
2024/04/05 01:00:53;;;;;;;1.92;0.98;;;;;;;;;;5053903;28;20029;-60
2024/04/05 01:03:19;;;;;;;3.88;1.40;;;;;;;;;;5053924;28;20162;-60
2024/04/05 01:05:46;;;;;;;1.95;1.20;;;;;;;;;;5053822;28;20025;-57
2024/04/05 01:08:14;;;;;;;2.72;1.10;;;;;;;;;;5053620;28;20025;-57
2024/04/05 01:10:40;;;;;;;2.83;1.27;;;;;;;;;;5054152;28;20029;-57
2024/04/05 01:13:07;;;;;;;1.65;0.95;;;;;;;;;;5053629;28;20017;-59
2024/04/05 01:15:33;;;;;;;1.60;1.00;;;;;;;;;;5054347;28;20025;-60
2024/04/05 01:18:01;;;;;;;2.92;1.00;;;;;;;;;;5053558;28;20379;-59
2024/04/05 01:20:30;;;;;;;3.90;1.00;;;;;;;;;;5054041;28;20021;-59
2024/04/05 01:22:59;;;;;;;1.30;0.68;;;;;;;;;;5053975;28;20057;-59
2024/04/05 01:25:25;;;;;;;2.30;1.20;;;;;;;;;;5053465;28;20065;-59
2024/04/05 01:27:51;;;;;;;2.35;0.95;;;;;;;;;;5053441;28;20063;-59
2024/04/05 01:30:17;;;;;;;3.50;1.55;;;;;;;;;;5053941;28;20056;-57
2024/04/05 01:32:53;;;;;;;1.50;0.85;;;;;;;;;;5053454;28;20478;-57
2024/04/05 01:35:19;;;;;;;3.13;1.15;;;;;;;;;;5052985;28;20029;-59
2024/04/05 01:37:46;;;;;;;2.22;1.10;;;;;;;;;;5053250;28;20067;-60
2024/04/05 01:40:12;;;;;;;1.25;0.75;;;;;;;;;;5053636;28;20100;-60
2024/04/05 01:42:38;;;;;;;2.13;1.00;;;;;;;;;;5053960;28;20041;-60
2024/04/05 01:45:04;;;;;;;4.85;2.00;;;;;;;;;;5053223;28;20025;-60
2024/04/05 01:47:30;;;;;;;2.80;1.42;;;;;;;;;;5053249;28;20391;-60
2024/04/05 01:49:56;;;;;;;1.67;1.02;;;;;;;;;;5053178;28;20081;-60
2024/04/05 01:52:22;;;;;;;1.50;1.00;;;;;;;;;;5053126;28;20051;-59
2024/04/05 01:54:49;;;;;;;3.50;1.42;;;;;;;;;;5053146;28;20032;-60
2024/04/05 01:57:14;;;;;;;2.70;1.25;;;;;;;;;;5055701;28;20049;-60
2024/04/05 01:59:45;;;;;;;3.72;1.17;;;;;;;;;;5057436;28;20463;-60
2024/04/05 02:02:11;;;;;;;3.70;1.33;;;;;;;;;;5057301;28;20025;-60
2024/04/05 02:04:37;;;;;;;1.20;0.70;;;;;;;;;;5057363;28;20025;-60
2024/04/05 02:07:03;;;;;;;2.75;1.17;;;;;;;;;;5056787;28;20024;-60
2024/04/05 02:09:29;;;;;;;2.33;1.05;;;;;;;;;;5057377;28;20025;-60
2024/04/05 02:11:55;;;;;;;4.57;1.30;;;;;;;;;;5057079;28;20448;-60
2024/04/05 02:14:21;;;;;;;2.13;1.35;;;;;;;;;;5056681;28;20025;-60
2024/04/05 02:16:47;;;;;;;2.65;1.00;;;;;;;;;;5056607;28;20025;-60
2024/04/05 02:19:13;;;;;;;2.55;1.25;;;;;;;;;;5056310;28;20029;-60
2024/04/05 02:21:39;;;;;;;2.17;1.13;;;;;;;;;;5056512;28;20370;-60
2024/04/05 02:24:05;;;;;;;5.57;1.10;;;;;;;;;;5056465;28;20059;-59
2024/04/05 02:26:31;;;;;;;1.83;1.05;;;;;;;;;;5056967;28;20039;-60
2024/04/05 02:28:57;;;;;;;2.70;0.90;;;;;;;;;;5057251;28;20443;-60
2024/04/05 02:31:23;;;;;;;2.63;1.35;;;;;;;;;;5056354;28;20633;-60
2024/04/05 02:33:49;;;;;;;3.53;1.13;;;;;;;;;;5056622;28;20048;-60
2024/04/05 02:36:15;;;;;;;1.95;1.35;;;;;;;;;;5055930;28;20029;-60
2024/04/05 02:38:41;;;;;;;3.08;0.90;;;;;;;;;;5056698;28;20025;-60
2024/04/05 02:41:07;;;;;;;2.83;1.23;;;;;;;;;;5056336;28;20025;-60
2024/04/05 02:43:33;;;;;;;3.80;1.20;;;;;;;;;;5056681;28;20036;-59
2024/04/05 02:46:00;;;;;;;1.92;1.13;;;;;;;;;;5056139;28;20041;-60
2024/04/05 02:48:25;;;;;;;2.00;1.05;;;;;;;;;;5056106;28;20029;-59
2024/04/05 02:50:51;;;;;;;3.17;1.83;;;;;;;;;;5056243;28;20025;-60
2024/04/05 02:53:17;;;;;;;4.13;1.63;;;;;;;;;;5056266;28;20025;-59
2024/04/05 02:55:43;;;;;;;3.25;1.38;;;;;;;;;;5055925;28;20029;-60
2024/04/05 02:58:10;;;;;;;3.33;1.30;;;;;;;;;;5056934;28;20136;-60
2024/04/05 03:00:37;;;;;;;2.10;1.30;;;;;;;;;;5056005;28;20025;-59
2024/04/05 03:03:03;;;;;;;2.25;1.45;;;;;;;;;;5056237;28;20025;-60
2024/04/05 03:05:29;;;;;;;2.08;1.13;;;;;;;;;;5055770;28;20021;-59
2024/04/05 03:07:55;;;;;;;2.75;1.35;;;;;;;;;;5055554;28;20025;-60
2024/04/05 03:10:21;;;;;;;1.70;0.85;;;;;;;;;;5055962;28;20118;-60
2024/04/05 03:12:47;;;;;;;4.97;1.50;;;;;;;;;;5055613;28;20032;-60
2024/04/05 03:15:12;;;;;;;6.97;1.63;;;;;;;;;;5056367;28;20423;-60
2024/04/05 03:17:38;;;;;;;2.65;1.25;;;;;;;;;;5055503;28;20397;-59
2024/04/05 03:20:06;;;;;;;3.10;1.17;;;;;;;;;;5056031;28;20036;-59
2024/04/05 03:22:32;;;;;;;4.20;1.15;;;;;;;;;;5055403;28;20029;-60
2024/04/05 03:24:58;;;;;;;3.08;1.50;;;;;;;;;;5056173;28;20032;-60
2024/04/05 03:27:24;;;;;;;1.55;0.85;;;;;;;;;;5055853;28;20060;-60
2024/04/05 03:29:51;;;;;;;1.92;1.00;;;;;;;;;;5055645;28;20063;-60
2024/04/05 03:32:17;;;;;;;3.03;1.52;;;;;;;;;;5055225;28;20133;-60
2024/04/05 03:34:46;;;;;;;1.83;1.10;;;;;;;;;;5055728;28;20059;-60
2024/04/05 03:37:12;;;;;;;2.40;1.15;;;;;;;;;;5056001;28;20029;-60
2024/04/05 03:39:38;;;;;;;2.72;1.20;;;;;;;;;;5055379;28;20040;-60
2024/04/05 03:42:04;;;;;;;1.83;1.02;;;;;;;;;;5054924;28;20083;-59
2024/04/05 03:44:30;;;;;;;1.92;1.08;;;;;;;;;;5054928;28;20467;-60
2024/04/05 03:46:56;;;;;;;3.50;1.27;;;;;;;;;;5054947;28;20054;-60
2024/04/05 03:49:22;;;;;;;2.65;1.45;;;;;;;;;;5055504;28;20059;-60
2024/04/05 03:51:48;;;;;;;4.95;1.23;;;;;;;;;;5055395;28;20100;-60
2024/04/05 03:54:14;;;;;;;2.63;1.15;;;;;;;;;;5055046;28;20167;-60
2024/04/05 03:56:41;;;;;;;3.67;1.58;;;;;;;;;;5054684;28;20076;-60
2024/04/05 03:59:07;;;;;;;3.63;1.63;;;;;;;;;;5054624;28;20467;-60
2024/04/05 04:01:32;;;;;;;4.03;1.63;;;;;;;;;;5054738;28;20032;-60
2024/04/05 04:03:58;;;;;;;4.63;1.60;;;;;;;;;;5054726;28;20105;-60
2024/04/05 04:06:24;;;;;;;5.22;1.55;;;;;;;;;;5054981;28;20060;-60
2024/04/05 04:08:50;;;;;;;2.85;1.10;;;;;;;;;;5055203;28;20446;-60
2024/04/05 04:11:16;;;;;;;4.18;1.77;;;;;;;;;;5054525;28;20426;-60
2024/04/05 04:13:43;;;;;;;2.30;1.25;;;;;;;;;;5054796;28;20029;-59
2024/04/05 04:16:09;;;;;;;2.97;1.13;;;;;;;;;;5054379;28;20111;-59
2024/04/05 04:18:35;;;;;;;5.15;1.63;;;;;;;;;;5054054;28;20357;-59
2024/04/05 04:21:02;;;;;;;2.90;1.58;;;;;;;;;;5055022;28;20414;-59
2024/04/05 04:23:28;;;;;;;2.70;1.30;;;;;;;;;;5055169;28;20061;-59
2024/04/05 04:25:58;;;;;;;2.72;1.60;;;;;;;;;;5054313;28;20029;-60
2024/04/05 04:28:24;;;;;;;4.70;1.40;;;;;;;;;;5054265;28;20033;-59
2024/04/05 04:30:50;;;;;;;5.18;1.67;;;;;;;;;;5054225;28;20017;-59
2024/04/05 04:33:18;;;;;;;2.38;1.25;;;;;;;;;;5054922;28;20029;-59
2024/04/05 04:35:45;;;;;;;5.63;1.60;;;;;;;;;;5054175;28;20155;-59
2024/04/05 04:38:11;;;;;;;2.17;1.20;;;;;;;;;;5054583;28;20033;-59
2024/04/05 04:40:37;;;;;;;2.72;1.48;;;;;;;;;;5054933;28;20048;-59
2024/04/05 04:43:03;;;;;;;2.70;1.05;;;;;;;;;;5053981;28;20113;-59
2024/04/05 04:45:29;;;;;;;3.10;1.48;;;;;;;;;;5054264;28;20036;-59
2024/04/05 04:47:55;;;;;;;1.88;0.85;;;;;;;;;;5053693;28;20482;-59
2024/04/05 04:50:21;;;;;;;2.15;1.05;;;;;;;;;;5054540;28;20351;-59
2024/04/05 04:52:47;;;;;;;2.67;1.67;;;;;;;;;;5053579;28;20113;-60
2024/04/05 04:55:14;;;;;;;2.35;1.13;;;;;;;;;;5053886;28;20056;-60
2024/04/05 04:57:39;;;;;;;2.55;1.40;;;;;;;;;;5053795;28;20390;-59
2024/04/05 05:00:06;;;;;;;4.18;2.00;;;;;;;;;;5053722;28;20028;-60
2024/04/05 05:02:32;;;;;;;3.15;1.58;;;;;;;;;;5053573;28;20101;-59
2024/04/05 05:04:58;;;;;;;1.85;1.17;;;;;;;;;;5053756;28;20057;-59
2024/04/05 05:07:24;;;;;;;2.17;1.30;;;;;;;;;;5053556;28;20071;-59
2024/04/05 05:09:50;;;;;;;3.75;1.65;;;;;;;;;;5054035;28;20027;-59
2024/04/05 05:12:16;;;;;;;2.70;1.83;;;;;;;;;;5053644;28;20501;-59
2024/04/05 05:14:42;;;;;;;4.20;1.85;;;;;;;;;;5054169;28;20025;-58
2024/04/05 05:17:08;;;;;;;2.50;1.80;;;;;;;;;;5053282;28;20387;-59
2024/04/05 05:19:34;;;;;;;2.20;1.40;;;;;;;;;;5054124;28;20125;-59
2024/04/05 05:22:00;;;;;;;3.75;1.38;;;;;;;;;;5053503;28;20110;-59
2024/04/05 05:24:25;;;;;;;2.88;2.00;;;;;;;;;;5053567;28;20103;-59
2024/04/05 05:26:51;;;;;;;2.55;1.63;;;;;;;;;;5053161;28;20025;-59
2024/04/05 05:29:18;;;;;;;2.90;1.60;;;;;;;;;;5053274;28;20033;-59
2024/04/05 05:31:44;;;;;;;4.35;2.00;;;;;;;;;;5056713;28;20044;-60
2024/04/05 05:34:10;;;;;;;2.63;1.52;;;;;;;;;;5057267;28;20087;-60
2024/04/05 05:36:36;;;;;;;4.82;2.50;;;;;;;;;;5057463;28;20025;-58
2024/04/05 05:39:02;;;;;;;3.15;1.42;;;;;;;;;;5057660;28;20024;-59
2024/04/05 05:41:29;;;;;;;3.05;2.13;;;;;;;;;;5057834;28;20025;-60
2024/04/05 05:43:55;;;;;;;5.70;1.80;;;;;;;;;;5056644;28;20036;-59
2024/04/05 05:46:21;;;;;;;5.28;2.30;;;;;;;;;;5058175;28;20432;-59
2024/04/05 05:48:48;;;;;;;5.70;2.22;;;;;;;;;;5057286;28;20063;-60
2024/04/05 05:51:14;;;;;;;3.08;2.00;;;;;;;;;;5057425;28;20368;-58
2024/04/05 05:53:40;;;;;;;3.20;2.15;;;;;;;;;;5057420;28;20114;-57
2024/04/05 05:56:07;;;;;;;5.68;2.22;;;;;;;;;;5056860;28;20025;-57
2024/04/05 05:58:33;;;;;;;2.80;2.00;;;;;;;;;;5057568;28;20036;-58
2024/04/05 06:01:05;;;;;;;3.22;1.88;;;;;;;;;;5056986;28;20029;-58
2024/04/05 06:03:32;;;;;;;3.33;1.95;;;;;;;;;;5057508;28;20032;-58
2024/04/05 06:05:57;;;;;;;4.03;1.38;;;;;;;;;;5056901;28;20486;-58
2024/04/05 06:08:24;;;;;;;2.30;1.40;;;;;;;;;;5056578;28;20025;-58
2024/04/05 06:10:59;;;;;;;2.30;1.50;;;;;;;;;;5056774;28;20028;-58
2024/04/05 06:13:25;;;;;;;2.25;1.48;;;;;;;;;;5056665;28;20469;-58
2024/04/05 06:15:52;;;;;;;2.47;1.40;;;;;;;;;;5056666;28;20052;-58
2024/04/05 06:18:18;;;;;;;4.30;1.65;;;;;;;;;;5056572;28;20078;-58
2024/04/05 06:20:51;;;;;;;3.20;2.00;;;;;;;;;;5056685;28;20025;-58
2024/04/05 06:23:17;;;;;;;3.47;2.03;;;;;;;;;;5057153;28;20021;-58
2024/04/05 06:25:50;;;;;;;4.07;1.92;;;;;;;;;;5057353;28;20392;-58
2024/04/05 06:28:16;;;;;;;3.55;2.20;;;;;;;;;;5057298;28;20056;-58
2024/04/05 06:30:42;;;;;;;2.90;2.05;;;;;;;;;;5055952;28;20456;-59
2024/04/05 06:33:08;;;;;;;2.33;1.75;;;;;;;;;;5056345;28;20036;-59
2024/04/05 06:35:34;;;;;;;2.65;1.83;;;;;;;;;;5056337;28;20029;-58
2024/04/05 06:38:00;;;;;;;3.28;1.48;;;;;;;;;;5056738;28;20052;-59
2024/04/05 06:40:26;;;;;;;2.30;1.42;;;;;;;;;;5056745;28;20072;-58
2024/04/05 06:42:52;;;;;;;4.03;1.60;;;;;;;;;;5055101;28;20455;-58
2024/04/05 06:45:18;;;;;;;2.45;1.25;;;;;;;;;;5056043;28;20067;-58
2024/04/05 06:47:44;;;;;;;3.38;1.40;;;;;;;;;;5056138;28;20056;-59
2024/04/05 06:50:10;;;;;;;2.13;1.20;;;;;;;;;;5056381;28;20017;-58
2024/04/05 06:52:36;;;;;;;2.58;1.30;;;;;;;;;;5056015;28;20028;-58
2024/04/05 06:55:02;;;;;;;2.75;1.48;;;;;;;;;;5055891;28;20021;-58
2024/04/05 06:57:29;;;;;;;2.17;1.38;;;;;;;;;;5055258;28;20056;-58
2024/04/05 06:59:55;;;;;;;2.35;1.30;;;;;;;;;;5056124;28;20021;-59
2024/04/05 07:02:22;;;;;;;6.47;1.65;;;;;;;;;;5055551;28;20027;-59
2024/04/05 07:04:48;;;;;;;3.92;1.67;;;;;;;;;;5055634;28;20021;-59
2024/04/05 07:07:14;;;;;;;3.58;1.90;;;;;;;;;;5055617;28;20025;-58
2024/04/05 07:09:40;;;;;;;4.88;1.73;;;;;;;;;;5056232;28;20025;-59
2024/04/05 07:12:07;;;;;;;2.35;1.30;;;;;;;;;;5055977;28;20089;-59
2024/04/05 07:14:33;;;;;;;3.58;1.92;;;;;;;;;;5055641;28;20129;-59
2024/04/05 07:16:59;;;;;;;1.92;1.13;;;;;;;;;;5055865;28;20060;-59
2024/04/05 07:19:25;;;;;;;3.90;1.88;;;;;;;;;;5056317;28;20029;-59
2024/04/05 07:21:52;;;;;;;2.90;1.70;;;;;;;;;;5055956;28;20025;-59
2024/04/05 07:24:18;;;;;;;3.17;1.70;;;;;;;;;;5055350;28;20028;-59
2024/04/05 07:26:44;;;;;;;2.65;1.80;;;;;;;;;;5055896;28;20025;-59
2024/04/05 07:29:10;;;;;;;2.67;1.65;;;;;;;;;;5055663;28;20459;-59
2024/04/05 07:31:36;;;;;;;4.00;1.38;;;;;;;;;;5055326;28;20025;-59
2024/04/05 07:34:06;;;;;;;2.38;1.42;;;;;;;;;;5054828;28;20540;-59
2024/04/05 07:36:35;;;;;;;3.20;1.05;;;;;;;;;;5055379;28;20025;-59
2024/04/05 07:39:03;;;;;;;3.50;1.30;;;;;;;;;;5055923;28;20120;-59
2024/04/05 07:41:29;;;;;;;3.28;1.65;;;;;;;;;;5055040;28;20036;-59
2024/04/05 07:43:55;;;;;;;3.03;1.20;;;;;;;;;;5054725;28;20017;-59
2024/04/05 07:46:21;;;;;;;2.55;1.13;;;;;;;;;;5055120;28;20063;-59
2024/04/05 07:48:48;;;;;;;2.33;1.10;;;;;;;;;;5054960;28;20021;-58
2024/04/05 07:51:14;;;;;;;2.15;1.30;;;;;;;;;;5054952;28;20074;-58
2024/04/05 07:53:41;;;;;;;4.03;1.25;;;;;;;;;;5055343;28;20025;-58
2024/04/05 07:56:07;;;;;;;3.53;1.45;;;;;;;;;;5055660;28;20113;-58
2024/04/05 07:58:33;;;;;;;4.55;1.35;;;;;;;;;;5055316;28;20108;-58
2024/04/05 08:00:59;;;;;;;1.73;0.93;;;;;;;;;;5054718;28;20116;-58
2024/04/05 08:03:25;;;;;;;1.30;0.70;;;;;;;;;;5055263;28;20025;-58
2024/04/05 08:05:51;;;;;;;4.75;1.20;;;;;;;;;;5054772;28;20345;-58
2024/04/05 08:08:17;;;;;;;3.28;1.35;;;;;;;;;;5054977;28;20053;-58
2024/04/05 08:10:43;;;;;;;2.05;1.00;;;;;;;;;;5054445;28;20025;-58
2024/04/05 08:13:09;;;;;;;2.70;1.17;;;;;;;;;;5054577;28;20028;-58
2024/04/05 08:15:35;;;;;;;1.38;0.90;;;;;;;;;;5054464;28;20029;-58
2024/04/05 08:18:01;;;;;;;3.33;0.85;;;;;;;;;;5054316;28;20087;-58
2024/04/05 08:20:27;;;;;;;3.80;1.23;;;;;;;;;;5054297;28;20029;-58
2024/04/05 08:22:53;;;;;;;3.33;0.77;;;;;;;;;;5054417;28;20032;-58
2024/04/05 08:25:19;;;;;;;1.95;0.93;;;;;;;;;;5054028;28;20375;-58
2024/04/05 08:27:45;;;;;;;1.80;1.08;;;;;;;;;;5054736;28;20021;-58
2024/04/05 08:30:12;;;;;;;2.25;1.40;;;;;;;;;;5054737;28;20025;-58
2024/04/05 08:32:40;;;;;;;2.08;1.13;;;;;;;;;;5055331;28;20429;-58
2024/04/05 08:35:06;;;;;;;2.30;0.82;;;;;;;;;;5054054;28;20101;-58
2024/04/05 08:37:33;;;;;;;1.63;0.82;;;;;;;;;;5053967;28;20021;-58
2024/04/05 08:39:59;;;;;;;1.33;0.63;;;;;;;;;;5054391;28;20025;-58
2024/04/05 08:42:25;;;;;;;2.20;1.10;;;;;;;;;;5054521;28;20413;-58
2024/04/05 08:44:52;;;;;;;2.00;0.80;;;;;;;;;;5053974;28;20375;-58
2024/04/05 08:47:18;;;;;;;2.03;0.95;;;;;;;;;;5053993;28;20448;-58
2024/04/05 08:49:47;;;;;;;2.05;0.70;;;;;;;;;;5054424;28;20025;-58
2024/04/05 08:52:19;;;;;;;4.35;1.17;;;;;;;;;;5053866;28;20025;-58
2024/04/05 08:54:45;;;;;;;1.38;0.85;;;;;;;;;;5053724;28;20482;-58
2024/04/05 08:57:12;;;;;;;2.03;1.00;;;;;;;;;;5054234;28;20069;-58
2024/04/05 08:59:38;;;;;;;2.55;1.05;;;;;;;;;;5053733;28;20356;-58
2024/04/05 09:02:04;;;;;;;2.75;1.15;;;;;;;;;;5053765;28;20039;-58
2024/04/05 09:04:30;;;;;;;2.13;0.95;;;;;;;;;;5053808;28;20025;-58
2024/04/05 09:06:56;;;;;;;1.95;0.77;;;;;;;;;;5052288;28;20025;-58
2024/04/05 09:09:29;;;;;;;1.63;0.75;;;;;;;;;;5053876;28;20036;-58
2024/04/05 09:12:03;;;;;;;1.48;0.65;;;;;;;;;;5054101;28;20028;-58
2024/04/05 09:14:29;;;;;;;1.48;0.50;;;;;;;;;;5053983;28;20029;-58
2024/04/05 09:16:55;;;;;;;1.52;0.77;;;;;;;;;;5053192;28;20047;-58
2024/04/05 09:19:22;;;;;;;1.38;0.68;;;;;;;;;;5053980;28;20095;-58
2024/04/05 09:21:48;;;;;;;3.75;0.90;;;;;;;;;;5053853;28;20437;-58
2024/04/05 09:24:17;;;;;;;2.65;0.90;;;;;;;;;;5054330;28;20021;-58
2024/04/05 09:26:43;;;;;;;1.38;0.65;;;;;;;;;;5053690;28;20074;-58
2024/04/05 09:29:13;;;;;;;1.88;0.98;;;;;;;;;;5054059;28;20344;-58
2024/04/05 09:31:39;;;;;;;1.35;0.82;;;;;;;;;;5054217;28;20345;-58
2024/04/05 09:34:17;;;;;;;2.58;1.02;;;;;;;;;;5053416;28;20033;-58
2024/04/05 09:36:43;;;;;;;4.30;1.08;;;;;;;;;;5054235;28;20029;-58
2024/04/05 09:39:13;;;;;;;1.65;0.63;;;;;;;;;;5053604;28;20043;-58
2024/04/05 09:41:40;;;;;;;1.67;0.60;;;;;;;;;;5053447;28;20479;-58
2024/04/05 09:44:06;;;;;;;2.58;0.77;;;;;;;;;;5053094;28;20033;-58
2024/04/05 09:46:33;;;;;;;8.40;0.90;;;;;;;;;;5053331;28;20029;-58
2024/04/05 09:49:00;;;;;;;1.40;0.75;;;;;;;;;;5053312;28;20040;-58
2024/04/05 09:51:26;;;;;;;1.15;0.60;;;;;;;;;;5053021;28;20025;-59
2024/04/05 09:53:54;;;;;;;2.20;1.08;;;;;;;;;;5053703;28;20025;-59
2024/04/05 09:56:22;;;;;;;2.88;0.90;;;;;;;;;;5052846;28;20081;-58
2024/04/05 09:58:49;;;;;;;5.70;0.50;;;;;;;;;;5053479;28;20017;-58
2024/04/05 10:01:16;;;;;;;1.85;0.80;;;;;;;;;;5053891;28;20068;-58
2024/04/05 10:03:42;;;;;;;1.15;0.52;;;;;;;;;;5053663;28;20033;-58
2024/04/05 10:06:18;;;;;;;1.15;0.57;;;;;;;;;;5052828;28;20057;-58
2024/04/05 10:08:44;;;;;;;1.17;0.32;;;;;;;;;;5053709;28;20037;-58
2024/04/05 10:11:10;;;;;;;3.78;1.02;;;;;;;;;;5053057;28;20025;-58
2024/04/05 10:13:36;;;;;;;1.25;0.65;;;;;;;;;;5052826;28;20112;-58
2024/04/05 10:16:02;;;;;;;2.25;0.75;;;;;;;;;;5053054;28;20139;-58
2024/04/05 10:18:30;;;;;;;3.97;1.40;;;;;;;;;;5055649;28;20032;-58
2024/04/05 10:21:03;;;;;;;1.88;0.90;;;;;;;;;;5057250;28;20102;-58
2024/04/05 10:23:29;;;;;;;2.17;0.82;;;;;;;;;;5057434;28;20029;-58
2024/04/05 10:25:56;;;;;;;1.95;0.65;;;;;;;;;;5057164;28;20040;-59
2024/04/05 10:28:22;;;;;;;2.60;0.73;;;;;;;;;;5057146;28;20370;-59
2024/04/05 10:30:49;;;;;;;1.40;0.50;;;;;;;;;;5056571;28;20534;-58
2024/04/05 10:33:21;;;;;;;1.35;0.50;;;;;;;;;;5056481;28;20036;-58
2024/04/05 10:35:48;;;;;;;0.98;0.40;;;;;;;;;;5056460;28;20095;-58
2024/04/05 10:38:14;;;;;;;0.80;0.40;;;;;;;;;;5056913;28;20079;-58
2024/04/05 10:40:40;;;;;;;1.35;0.30;;;;;;;;;;5056331;28;20033;-59
2024/04/05 10:43:12;;;;;;;0.93;0.50;;;;;;;;;;5056394;28;20055;-59
2024/04/05 10:45:38;;;;;;;1.95;0.50;;;;;;;;;;5056240;28;20071;-59
2024/04/05 10:48:05;;;;;;;0.95;0.20;;;;;;;;;;5056152;28;20414;-59
2024/04/05 10:50:35;;;;;;;1.42;0.57;;;;;;;;;;5056669;28;20028;-59
2024/04/05 10:53:01;;;;;;;3.25;0.73;;;;;;;;;;5056084;28;20061;-59
2024/04/05 10:55:27;;;;;;;2.03;0.65;;;;;;;;;;5056550;28;20090;-59
2024/04/05 10:57:53;;;;;;;1.05;0.50;;;;;;;;;;5057113;28;20439;-59
2024/04/05 11:00:19;;;;;;;4.13;0.50;;;;;;;;;;5055919;28;20025;-59
2024/04/05 11:02:45;;;;;;;1.90;0.75;;;;;;;;;;5056772;28;20043;-58
2024/04/05 11:05:13;;;;;;;1.38;0.40;;;;;;;;;;5056108;28;20083;-59
2024/04/05 11:07:40;;;;;;;2.83;0.40;;;;;;;;;;5055786;28;20021;-59
2024/04/05 11:10:19;;;;;;;0.80;0.40;;;;;;;;;;5056376;28;20021;-59
2024/04/05 11:12:45;;;;;;;1.17;0.40;;;;;;;;;;5055728;28;20044;-59
2024/04/05 11:15:11;;;;;;;0.95;0.40;;;;;;;;;;5055964;28;20025;-59
2024/04/05 11:17:38;;;;;;;0.80;0.30;;;;;;;;;;5055930;28;20028;-59
2024/04/05 11:20:09;;;;;;;1.67;0.85;;;;;;;;;;5056151;28;20057;-59
2024/04/05 11:22:35;;;;;;;0.70;0.40;;;;;;;;;;5055548;28;20021;-59
2024/04/05 11:25:01;;;;;;;2.20;0.80;;;;;;;;;;5055995;28;20083;-59
2024/04/05 11:27:28;;;;;;;1.75;0.60;;;;;;;;;;5055448;28;20019;-59
2024/04/05 11:29:54;;;;;;;0.85;0.43;;;;;;;;;;5055881;28;20024;-59
2024/04/05 11:32:29;;;;;;;1.25;0.35;;;;;;;;;;5055332;28;20032;-59
2024/04/05 11:35:02;;;;;;;0.65;0.30;;;;;;;;;;5055365;28;20104;-60
2024/04/05 11:37:28;;;;;;;1.83;0.40;;;;;;;;;;5055270;28;20037;-59
2024/04/05 11:39:54;;;;;;;2.13;0.60;;;;;;;;;;5056055;28;20029;-59
2024/04/05 11:42:20;;;;;;;0.93;0.35;;;;;;;;;;5054775;28;20021;-59
2024/04/05 11:44:46;;;;;;;0.85;0.35;;;;;;;;;;5055110;28;20028;-59
2024/04/05 11:47:12;;;;;;;0.70;0.35;;;;;;;;;;5055553;28;20017;-59
2024/04/05 11:49:38;;;;;;;0.95;0.38;;;;;;;;;;5054961;28;20028;-59
2024/04/05 11:52:04;;;;;;;1.35;0.63;;;;;;;;;;5054956;28;20371;-59
2024/04/05 11:54:31;;;;;;;1.48;0.40;;;;;;;;;;5055037;28;20018;-58
2024/04/05 11:56:57;;;;;;;1.52;0.40;;;;;;;;;;5054769;28;20431;-59
2024/04/05 11:59:23;;;;;;;0.77;0.50;;;;;;;;;;5054985;28;20087;-59
2024/04/05 12:01:49;;;;;;;0.88;0.47;;;;;;;;;;5054315;28;20025;-59
2024/04/05 12:04:15;;;;;;;1.15;0.55;;;;;;;;;;5054507;28;20112;-59
2024/04/05 12:06:41;;;;;;;1.77;0.57;;;;;;;;;;5055127;28;20071;-59
2024/04/05 12:09:08;;;;;;;0.73;0.40;;;;;;;;;;5054400;28;20498;-59
2024/04/05 12:11:34;;;;;;;1.10;0.50;;;;;;;;;;5055402;28;20398;-58
2024/04/05 12:14:00;;;;;;;0.68;0.30;;;;;;;;;;5054586;28;20078;-59
2024/04/05 12:16:26;;;;;;;1.25;0.52;;;;;;;;;;5054851;28;20064;-59
2024/04/05 12:18:52;;;;;;;1.52;0.60;;;;;;;;;;5054762;28;20029;-59
2024/04/05 12:21:18;;;;;;;2.58;0.68;;;;;;;;;;5054227;28;20374;-58
2024/04/05 12:23:45;;;;;;;3.90;0.75;;;;;;;;;;5054003;28;20078;-59
2024/04/05 12:26:11;;;;;;;1.95;0.82;;;;;;;;;;5054421;28;20126;-59
2024/04/05 12:28:38;;;;;;;0.90;0.40;;;;;;;;;;5054505;28;20104;-59
2024/04/05 12:31:04;;;;;;;0.70;0.32;;;;;;;;;;5054236;28;20467;-59
2024/04/05 12:33:30;;;;;;;1.48;0.60;;;;;;;;;;5054166;28;20486;-59
2024/04/05 12:35:59;;;;;;;3.35;0.43;;;;;;;;;;5054196;28;20029;-59
2024/04/05 12:38:28;;;;;;;2.10;0.68;;;;;;;;;;5054613;28;20031;-60
2024/04/05 12:40:54;;;;;;;2.67;0.90;;;;;;;;;;5053328;28;20031;-59
2024/04/05 12:43:21;;;;;;;3.15;0.40;;;;;;;;;;5054114;28;20490;-59
2024/04/05 12:45:56;;;;;;;7.75;0.85;;;;;;;;;;5054002;28;20031;-59
2024/04/05 12:48:22;;;;;;;1.13;0.63;;;;;;;;;;5054350;28;20391;-59
2024/04/05 12:50:55;;;;;;;1.70;0.60;;;;;;;;;;5054410;28;20021;-59
2024/04/05 12:53:21;;;;;;;3.67;0.50;;;;;;;;;;5054463;28;20048;-59
2024/04/05 12:55:57;;;;;;;3.95;0.95;;;;;;;;;;5054415;28;20486;-59
2024/04/05 12:58:24;;;;;;;2.05;0.52;;;;;;;;;;5054099;28;20044;-59
2024/04/05 13:00:51;;;;;;;1.20;0.60;;;;;;;;;;5053649;28;20402;-59
2024/04/05 13:03:17;;;;;;;0.88;0.40;;;;;;;;;;5054243;28;20104;-59
2024/04/05 13:05:42;;;;;;;0.85;0.30;;;;;;;;;;5054016;28;20103;-59
2024/04/05 13:08:09;;;;;;;1.58;0.50;;;;;;;;;;5053924;28;20035;-59
2024/04/05 13:10:35;;;;;;;1.02;0.50;;;;;;;;;;5054403;28;20029;-59
2024/04/05 13:13:01;;;;;;;1.65;0.50;;;;;;;;;;5054421;28;20021;-59
2024/04/05 13:15:27;;;;;;;0.63;0.35;;;;;;;;;;5053684;28;20040;-59
2024/04/05 13:17:53;;;;;;;4.55;0.57;;;;;;;;;;5054095;28;20111;-59
2024/04/05 13:20:23;;;;;;;1.85;0.70;;;;;;;;;;5054191;28;20049;-59
2024/04/05 13:22:49;;;;;;;0.93;0.47;;;;;;;;;;5053506;28;20017;-59
2024/04/05 13:25:15;;;;;;;0.90;0.50;;;;;;;;;;5054030;28;20340;-59
2024/04/05 13:27:41;;;;;;;1.15;0.52;;;;;;;;;;5053514;28;20025;-59
2024/04/05 13:30:07;;;;;;;0.95;0.50;;;;;;;;;;5053774;28;20122;-59
2024/04/05 13:32:33;;;;;;;1.13;0.50;;;;;;;;;;5054219;28;20029;-59
2024/04/05 13:34:59;;;;;;;0.68;0.30;;;;;;;;;;5053468;28;20074;-59
2024/04/05 13:37:25;;;;;;;1.52;0.57;;;;;;;;;;5053466;28;20021;-59
2024/04/05 13:39:51;;;;;;;0.95;0.32;;;;;;;;;;5053655;28;20463;-59
2024/04/05 13:42:47;;;;;;;0.75;0.32;;;;;;;;;;5053158;28;20077;-59
2024/04/05 13:45:13;;;;;;;2.45;0.55;;;;;;;;;;5049233;28;20135;-59
2024/04/05 13:47:39;;;;;;;1.77;0.63;;;;;;;;;;5053179;28;20021;-59
2024/04/05 13:50:08;;;;;;;1.92;0.50;;;;;;;;;;5053211;28;20031;-59
2024/04/05 13:52:34;;;;;;;1.05;0.40;;;;;;;;;;5056728;28;20056;-59
2024/04/05 13:55:00;;;;;;;1.35;0.55;;;;;;;;;;5057123;28;20026;-59
2024/04/05 13:57:26;;;;;;;1.55;0.63;;;;;;;;;;5056835;28;20083;-60
2024/04/05 13:59:52;;;;;;;0.98;0.50;;;;;;;;;;5057121;28;20059;-60
2024/04/05 14:02:18;;;;;;;4.55;0.63;;;;;;;;;;5057088;28;20126;-60
2024/04/05 14:04:44;;;;;;;2.15;0.77;;;;;;;;;;5057045;28;20104;-60
2024/04/05 14:07:10;;;;;;;1.02;0.50;;;;;;;;;;5056760;28;20029;-60
2024/04/05 14:09:39;;;;;;;3.80;0.70;;;;;;;;;;5057409;28;20033;-60
2024/04/05 14:12:05;;;;;;;0.77;0.40;;;;;;;;;;5056873;28;20060;-60
2024/04/05 14:14:32;;;;;;;2.35;0.90;;;;;;;;;;5056786;28;20021;-60
2024/04/05 14:16:58;;;;;;;0.95;0.50;;;;;;;;;;5056776;28;20100;-60
2024/04/05 14:19:24;;;;;;;0.90;0.40;;;;;;;;;;5057261;28;20118;-60
2024/04/05 14:21:50;;;;;;;0.88;0.40;;;;;;;;;;5057047;28;20025;-60
2024/04/05 14:24:16;;;;;;;1.40;0.70;;;;;;;;;;5056561;28;20071;-60
2024/04/05 14:26:42;;;;;;;1.77;0.60;;;;;;;;;;5057419;28;20033;-60
2024/04/05 14:29:08;;;;;;;1.13;0.50;;;;;;;;;;5056896;28;20036;-60
2024/04/05 14:31:34;;;;;;;1.73;0.80;;;;;;;;;;5056839;28;20056;-60
2024/04/05 14:34:00;;;;;;;1.27;0.70;;;;;;;;;;5056445;28;20076;-60
2024/04/05 14:36:26;;;;;;;1.33;0.45;;;;;;;;;;5056460;28;20117;-60
2024/04/05 14:38:52;;;;;;;1.42;0.52;;;;;;;;;;5057000;28;20120;-60
2024/04/05 14:41:18;;;;;;;2.55;0.70;;;;;;;;;;5056258;28;20036;-60